Time,TemperatureF,DewpointF,PressureIn,WindDirection,WindDirectionDegrees,WindSpeedMPH,WindSpeedGustMPH,Humidity,HourlyPrecipIn,Conditions,Clouds,dailyrainin,SolarRadiationWatts/m^2,SoftwareType,DateUTC
2013-07-10 00:01:00,72.0,72.0,30.41,SSW,213,6.0,13.0,99,0.00,,,1.56,0.000000,,2013-07-10 04:01:00,
2013-07-10 00:11:00,72.0,72.0,30.41,SSW,213,6.0,13.0,99,0.00,,,1.56,0.000000,,2013-07-10 04:11:00,
2013-07-10 00:43:00,74.0,74.0,30.40,South,188,7.0,12.0,99,0.00,,,1.56,0.000000,,2013-07-10 04:43:00,
2013-07-10 00:52:00,74.0,74.0,30.40,South,188,7.0,12.0,99,0.00,,,1.56,0.000000,,2013-07-10 04:52:00,
2013-07-10 01:02:00,74.0,74.0,30.40,South,188,7.0,12.0,99,0.00,,,1.56,0.000000,,2013-07-10 05:02:00,
2013-07-10 01:12:00,74.0,74.0,30.40,South,188,7.0,12.0,99,0.00,,,1.56,0.000000,,2013-07-10 05:12:00,
2013-07-10 01:42:00,74.0,74.0,30.39,SSW,206,8.0,15.0,99,0.00,,,1.56,0.000000,,2013-07-10 05:42:00,
2013-07-10 01:53:00,74.0,74.0,30.39,SSW,206,8.0,15.0,99,0.00,,,1.56,0.000000,,2013-07-10 05:53:00,
2013-07-10 02:01:00,74.0,74.0,30.39,SSW,206,8.0,15.0,99,0.00,,,1.56,0.000000,,2013-07-10 06:01:00,
2013-07-10 02:11:00,74.0,74.0,30.39,SSW,206,8.0,15.0,99,0.00,,,1.56,0.000000,,2013-07-10 06:11:00,
2013-07-10 02:42:00,73.0,73.0,30.38,SW,224,7.0,16.0,99,0.00,,,1.56,0.000000,,2013-07-10 06:42:00,
2013-07-10 02:52:00,73.0,73.0,30.38,SW,224,7.0,16.0,99,0.00,,,1.56,0.000000,,2013-07-10 06:52:00,
2013-07-10 03:01:00,73.0,73.0,30.38,SW,224,7.0,16.0,99,0.00,,,1.56,0.000000,,2013-07-10 07:01:00,
2013-07-10 03:12:00,73.0,73.0,30.38,SW,224,7.0,16.0,99,0.00,,,1.56,0.000000,,2013-07-10 07:12:00,
2013-07-10 03:43:00,74.0,74.0,30.37,SSW,205,6.0,13.0,99,0.00,,,1.56,0.000000,,2013-07-10 07:43:00,
2013-07-10 03:53:00,74.0,74.0,30.37,SSW,205,6.0,13.0,99,0.00,,,1.56,0.000000,,2013-07-10 07:53:00,
2013-07-10 04:02:00,74.0,74.0,30.37,SSW,205,6.0,13.0,99,0.00,,,1.56,0.000000,,2013-07-10 08:02:00,
2013-07-10 04:12:00,74.0,74.0,30.37,SSW,205,6.0,13.0,99,0.00,,,1.56,0.000000,,2013-07-10 08:12:00,
2013-07-10 04:33:00,74.0,74.0,30.36,SSW,196,6.0,11.0,99,0.00,,,1.56,0.000000,,2013-07-10 08:33:00,
2013-07-10 04:42:00,74.0,74.0,30.36,SSW,196,6.0,11.0,99,0.00,,,1.56,0.000000,,2013-07-10 08:42:00,
2013-07-10 04:53:00,74.0,74.0,30.36,SSW,196,6.0,11.0,99,0.00,,,1.56,0.000000,,2013-07-10 08:53:00,
2013-07-10 05:02:00,74.0,74.0,30.36,SSW,196,6.0,11.0,99,0.00,,,1.56,0.000000,,2013-07-10 09:02:00,
2013-07-10 05:12:00,74.0,74.0,30.36,SSW,196,6.0,11.0,99,0.00,,,1.56,0.000000,,2013-07-10 09:12:00,
2013-07-10 05:43:00,74.0,74.0,30.36,SSW,197,6.0,10.0,99,0.00,,,1.56,0.000000,,2013-07-10 09:43:00,
2013-07-10 05:53:00,74.0,74.0,30.36,SSW,197,6.0,10.0,99,0.00,,,1.56,0.000000,,2013-07-10 09:53:00,
2013-07-10 06:01:00,74.0,74.0,30.36,SSW,197,6.0,10.0,99,0.00,,,1.56,0.000000,,2013-07-10 10:01:00,
2013-07-10 06:13:00,74.0,74.0,30.36,SSW,197,6.0,10.0,99,0.00,,,1.56,0.000000,,2013-07-10 10:13:00,
2013-07-10 06:51:00,-999.0,-99.9,30.37,SSW,199,6.0,11.0,-999,-99.99,,,-99.99,0.000000,,2013-07-10 10:51:00,
2013-07-10 07:00:00,-999.0,-99.9,30.37,SSW,199,6.0,11.0,-999,-99.99,,,-99.99,0.000000,,2013-07-10 11:00:00,
2013-07-10 07:11:00,74.0,74.0,30.37,SSW,199,6.0,11.0,99,0.00,,,1.56,0.000000,,2013-07-10 11:11:00,
2013-07-10 10:44:00,78.0,74.0,30.38,SSW,212,7.0,20.0,88,-99.99,,,1.57,145.000000,,2013-07-10 14:44:00,
2013-07-10 10:53:00,78.0,74.0,30.38,SSW,212,7.0,20.0,88,-99.99,,,1.57,145.000000,,2013-07-10 14:53:00,
2013-07-10 11:01:00,78.0,74.0,30.38,SSW,212,7.0,20.0,88,-99.99,,,1.57,145.000000,,2013-07-10 15:01:00,
2013-07-10 11:11:00,78.0,74.0,30.38,SSW,212,7.0,20.0,88,-99.99,,,1.57,145.000000,,2013-07-10 15:11:00,
2013-07-10 11:43:00,80.0,73.0,30.38,SSW,211,8.0,17.0,78,0.00,,,1.57,281.000000,,2013-07-10 15:43:00,
2013-07-10 11:52:00,80.0,73.0,30.38,SSW,211,8.0,17.0,78,0.00,,,1.57,281.000000,,2013-07-10 15:52:00,
2013-07-10 12:02:00,80.0,73.0,30.38,SSW,211,8.0,17.0,78,0.00,,,1.57,281.000000,,2013-07-10 16:02:00,
2013-07-10 12:11:00,80.0,73.0,30.38,SSW,211,8.0,17.0,78,0.00,,,1.57,281.000000,,2013-07-10 16:11:00,
2013-07-10 12:44:00,86.0,73.0,30.37,NW,320,9.0,20.0,66,0.00,,,1.57,812.000000,,2013-07-10 16:44:00,
2013-07-10 12:53:00,86.0,73.0,30.37,NW,320,9.0,20.0,66,0.00,,,1.57,812.000000,,2013-07-10 16:53:00,
2013-07-10 13:02:00,86.0,73.0,30.37,NW,320,9.0,20.0,66,0.00,,,1.57,812.000000,,2013-07-10 17:02:00,
2013-07-10 13:12:00,86.0,73.0,30.37,NW,320,9.0,20.0,66,0.00,,,1.57,812.000000,,2013-07-10 17:12:00,
2013-07-10 13:43:00,87.0,72.0,30.35,SSW,208,9.0,20.0,62,0.00,,,1.57,901.000000,,2013-07-10 17:43:00,
2013-07-10 13:53:00,87.0,72.0,30.35,SSW,208,9.0,20.0,62,0.00,,,1.57,901.000000,,2013-07-10 17:53:00,
2013-07-10 14:02:00,87.0,72.0,30.35,SSW,208,9.0,20.0,62,0.00,,,1.57,901.000000,,2013-07-10 18:02:00,
2013-07-10 14:11:00,87.0,72.0,30.35,SSW,208,9.0,20.0,62,0.00,,,1.57,901.000000,,2013-07-10 18:11:00,
2013-07-10 14:44:00,88.0,71.0,30.33,SSW,198,9.0,22.0,57,0.00,,,1.57,950.000000,,2013-07-10 18:44:00,
2013-07-10 14:53:00,88.0,71.0,30.33,SSW,198,9.0,22.0,57,0.00,,,1.57,950.000000,,2013-07-10 18:53:00,
2013-07-10 15:02:00,88.0,71.0,30.33,SSW,198,9.0,22.0,57,0.00,,,1.57,950.000000,,2013-07-10 19:02:00,
2013-07-10 15:11:00,88.0,71.0,30.33,SSW,198,9.0,22.0,57,0.00,,,1.57,950.000000,,2013-07-10 19:11:00,
2013-07-10 15:32:00,86.0,71.0,30.30,SSW,192,7.0,18.0,62,0.00,,,1.57,669.000000,,2013-07-10 19:32:00,
2013-07-10 15:42:00,86.0,71.0,30.30,SSW,192,7.0,18.0,62,0.00,,,1.57,669.000000,,2013-07-10 19:42:00,
2013-07-10 15:53:00,86.0,71.0,30.30,SSW,192,7.0,18.0,62,0.00,,,1.57,669.000000,,2013-07-10 19:53:00,
2013-07-10 16:02:00,86.0,71.0,30.30,SSW,192,7.0,18.0,62,0.00,,,1.57,669.000000,,2013-07-10 20:02:00,
2013-07-10 16:11:00,86.0,71.0,30.30,SSW,192,7.0,18.0,62,0.00,,,1.57,669.000000,,2013-07-10 20:11:00,
2013-07-10 16:32:00,88.0,72.0,30.28,SSW,199,8.0,19.0,60,0.00,,,1.57,377.000000,,2013-07-10 20:32:00,
2013-07-10 16:43:00,88.0,72.0,30.28,SSW,199,8.0,19.0,60,0.00,,,1.57,377.000000,,2013-07-10 20:43:00,
2013-07-10 16:52:00,88.0,72.0,30.28,SSW,199,8.0,19.0,60,0.00,,,1.57,377.000000,,2013-07-10 20:52:00,
2013-07-10 17:01:00,88.0,72.0,30.28,SSW,199,8.0,19.0,60,0.00,,,1.57,377.000000,,2013-07-10 21:01:00,
2013-07-10 17:12:00,88.0,72.0,30.28,SSW,199,8.0,19.0,60,0.00,,,1.57,377.000000,,2013-07-10 21:12:00,
2013-07-10 17:42:00,87.0,69.0,30.27,South,190,8.0,24.0,55,0.00,,,0.68,683.000000,,2013-07-10 21:42:00,
2013-07-10 17:52:00,87.0,69.0,30.27,South,190,8.0,24.0,55,0.00,,,0.68,683.000000,,2013-07-10 21:52:00,
2013-07-10 18:01:00,87.0,69.0,30.27,South,190,8.0,24.0,55,0.00,,,0.68,683.000000,,2013-07-10 22:01:00,
2013-07-10 18:11:00,87.0,69.0,30.27,South,190,8.0,24.0,55,0.00,,,0.68,683.000000,,2013-07-10 22:11:00,
2013-07-10 18:43:00,87.0,69.0,30.26,South,191,11.0,22.0,56,0.00,,,0.01,262.000000,,2013-07-10 22:43:00,
2013-07-10 18:53:00,87.0,69.0,30.26,South,191,11.0,22.0,56,0.00,,,0.01,262.000000,,2013-07-10 22:53:00,
2013-07-10 19:01:00,87.0,69.0,30.26,South,191,11.0,22.0,56,0.00,,,0.01,262.000000,,2013-07-10 23:01:00,
2013-07-10 19:11:00,87.0,69.0,30.26,South,191,11.0,22.0,56,0.00,,,0.01,262.000000,,2013-07-10 23:11:00,
2013-07-10 19:32:00,85.0,70.0,30.25,South,185,8.0,24.0,61,0.00,,,0.01,148.000000,,2013-07-10 23:32:00,
2013-07-10 19:43:00,85.0,70.0,30.25,South,185,8.0,24.0,61,0.00,,,0.01,148.000000,,2013-07-10 23:43:00,
2013-07-10 19:52:00,85.0,70.0,30.25,South,185,8.0,24.0,61,0.00,,,0.01,148.000000,,2013-07-10 23:52:00,
2013-07-10 20:01:00,85.0,70.0,30.25,South,185,8.0,24.0,61,0.00,,,0.01,148.000000,,2013-07-11 00:01:00,
2013-07-10 20:11:00,85.0,70.0,30.25,South,185,8.0,24.0,61,0.00,,,0.01,148.000000,,2013-07-11 00:11:00,
2013-07-10 20:43:00,80.0,69.0,30.26,South,183,7.0,17.0,70,0.00,,,0.01,37.000000,,2013-07-11 00:43:00,
2013-07-10 20:52:00,80.0,69.0,30.26,South,183,7.0,17.0,70,0.00,,,0.01,37.000000,,2013-07-11 00:52:00,
2013-07-10 21:01:00,80.0,69.0,30.26,South,183,7.0,17.0,70,0.00,,,0.01,37.000000,,2013-07-11 01:01:00,
2013-07-10 21:11:00,80.0,69.0,30.26,South,183,7.0,17.0,70,0.00,,,0.01,37.000000,,2013-07-11 01:11:00,
2013-07-10 21:43:00,80.0,71.0,30.28,South,190,6.0,14.0,73,0.00,,,0.01,2.000000,,2013-07-11 01:43:00,
2013-07-10 21:52:00,80.0,71.0,30.28,South,190,6.0,14.0,73,0.00,,,0.01,2.000000,,2013-07-11 01:52:00,
2013-07-10 22:02:00,80.0,71.0,30.28,South,190,6.0,14.0,73,0.00,,,0.01,2.000000,,2013-07-11 02:02:00,
2013-07-10 22:11:00,80.0,71.0,30.28,South,190,6.0,14.0,73,0.00,,,0.01,2.000000,,2013-07-11 02:11:00,
2013-07-10 22:44:00,77.0,70.0,30.29,South,189,7.0,12.0,78,0.00,,,0.01,0.000000,,2013-07-11 02:44:00,
2013-07-10 22:53:00,77.0,70.0,30.29,South,189,7.0,12.0,78,0.00,,,0.01,0.000000,,2013-07-11 02:53:00,
2013-07-10 23:02:00,77.0,70.0,30.29,South,189,7.0,12.0,78,0.00,,,0.01,0.000000,,2013-07-11 03:02:00,
2013-07-10 23:11:00,77.0,70.0,30.29,South,189,7.0,12.0,78,0.00,,,0.01,0.000000,,2013-07-11 03:11:00,
2013-07-10 23:42:00,77.0,70.0,30.28,SSW,195,6.0,13.0,80,0.00,,,0.01,0.000000,,2013-07-11 03:42:00,
2013-07-10 23:53:00,77.0,70.0,30.28,SSW,195,6.0,13.0,80,0.00,,,0.01,0.000000,,2013-07-11 03:53:00,